createdAt,value
2022-11-09T00:01:03.669Z,8.70
2022-11-09T00:03:30.499Z,8.70
2022-11-09T00:05:58.412Z,8.70
2022-11-09T00:08:25.567Z,8.70
2022-11-09T00:10:52.670Z,8.60
2022-11-09T00:13:20.109Z,8.60
2022-11-09T00:15:47.282Z,8.50
2022-11-09T00:18:14.166Z,8.50
2022-11-09T00:20:47.240Z,8.50
2022-11-09T00:23:15.227Z,8.50
2022-11-09T00:25:42.023Z,8.50
2022-11-09T00:28:08.874Z,8.50
2022-11-09T00:30:35.953Z,8.50
2022-11-09T00:33:02.737Z,8.50
2022-11-09T00:35:29.595Z,8.50
2022-11-09T00:37:56.749Z,8.60
2022-11-09T00:40:23.777Z,8.50
2022-11-09T00:42:50.566Z,8.50
2022-11-09T00:45:17.502Z,8.50
2022-11-09T00:47:44.915Z,8.50
2022-11-09T00:50:11.890Z,8.50
2022-11-09T00:52:38.696Z,8.50
2022-11-09T00:55:06.023Z,8.60
2022-11-09T00:57:32.893Z,8.60
2022-11-09T01:00:00.185Z,8.70
2022-11-09T01:02:27.063Z,8.70
2022-11-09T01:04:53.866Z,8.80
2022-11-09T01:07:20.698Z,8.80
2022-11-09T01:09:47.680Z,8.80
2022-11-09T01:12:15.279Z,8.80
2022-11-09T01:14:43.180Z,8.90
2022-11-09T01:17:10.019Z,8.80
2022-11-09T01:19:36.886Z,8.90
2022-11-09T01:22:03.681Z,9.00
2022-11-09T01:24:30.462Z,9.00
2022-11-09T01:26:57.254Z,9.00
2022-11-09T01:29:24.048Z,9.10
2022-11-09T01:31:54.849Z,9.10
2022-11-09T01:34:22.094Z,9.10
2022-11-09T01:36:52.593Z,9.00
2022-11-09T01:39:20.064Z,9.00
2022-11-09T01:41:47.205Z,8.90
2022-11-09T01:44:17.128Z,8.90
2022-11-09T01:46:47.474Z,8.80
2022-11-09T01:49:42.369Z,8.80
2022-11-09T01:52:13.576Z,8.70
2022-11-09T01:54:45.642Z,8.70
2022-11-09T01:57:19.318Z,8.60
2022-11-09T01:59:53.314Z,8.50
2022-11-09T02:02:20.680Z,8.50
2022-11-09T02:04:55.905Z,8.50
2022-11-09T02:07:23.349Z,8.50
2022-11-09T02:10:06.992Z,8.50
2022-11-09T02:12:35.645Z,8.50
2022-11-09T02:15:05.603Z,8.50
2022-11-09T02:17:34.251Z,8.60
2022-11-09T02:20:03.639Z,8.60
2022-11-09T02:22:30.450Z,8.70
2022-11-09T02:24:58.143Z,8.70
2022-11-09T02:27:24.947Z,8.80
2022-11-09T02:29:53.344Z,8.70
2022-11-09T02:32:22.726Z,8.70
2022-11-09T02:34:49.577Z,8.70
2022-11-09T02:37:35.938Z,8.70
2022-11-09T02:40:09.689Z,8.70
2022-11-09T02:42:36.994Z,8.70
2022-11-09T02:45:04.686Z,8.80
2022-11-09T02:47:31.657Z,8.80
2022-11-09T02:49:58.532Z,8.80
2022-11-09T02:52:26.736Z,8.90
2022-11-09T02:54:53.854Z,8.90
2022-11-09T02:57:20.705Z,8.90
2022-11-09T02:59:48.127Z,8.90
2022-11-09T03:02:15.039Z,9.00
2022-11-09T03:04:41.893Z,9.00
2022-11-09T03:07:09.098Z,9.10
2022-11-09T03:09:36.847Z,9.10
2022-11-09T03:12:23.685Z,9.10
2022-11-09T03:14:51.378Z,9.20
2022-11-09T03:17:19.335Z,9.20
2022-11-09T03:19:46.449Z,9.20
2022-11-09T03:22:14.022Z,9.20
2022-11-09T03:24:41.092Z,9.20
2022-11-09T03:27:08.389Z,9.20
2022-11-09T03:29:35.375Z,9.20
2022-11-09T03:32:02.895Z,9.20
2022-11-09T03:34:30.180Z,9.20
2022-11-09T03:36:57.144Z,9.20
2022-11-09T03:39:24.003Z,9.30
2022-11-09T03:41:50.928Z,9.30
2022-11-09T03:44:17.730Z,9.30
2022-11-09T03:46:44.748Z,9.30
2022-11-09T03:49:11.728Z,9.30
2022-11-09T03:51:38.551Z,9.30
2022-11-09T03:54:05.473Z,9.30
2022-11-09T03:56:32.220Z,9.30
2022-11-09T03:58:59.390Z,9.30
2022-11-09T04:01:26.208Z,9.40
2022-11-09T04:03:53.069Z,9.40
2022-11-09T04:06:19.810Z,9.40
2022-11-09T04:08:51.095Z,9.40
2022-11-09T04:11:19.429Z,9.40
2022-11-09T04:13:47.364Z,9.40
2022-11-09T04:16:14.220Z,9.50
2022-11-09T04:18:41.015Z,9.50
2022-11-09T04:21:08.045Z,9.50
2022-11-09T04:23:34.989Z,9.50
2022-11-09T04:26:02.039Z,9.60
2022-11-09T04:28:29.054Z,9.50
2022-11-09T04:31:00.699Z,9.60
2022-11-09T04:33:27.784Z,9.60
2022-11-09T04:35:55.670Z,9.60
2022-11-09T04:38:22.469Z,9.70
2022-11-09T04:40:49.236Z,9.70
2022-11-09T04:43:16.155Z,9.70
2022-11-09T04:45:44.235Z,9.80
2022-11-09T04:48:12.074Z,9.80
2022-11-09T04:50:39.216Z,9.80
2022-11-09T04:53:11.324Z,9.80
2022-11-09T04:55:39.078Z,9.80
2022-11-09T04:58:06.202Z,9.80
2022-11-09T05:00:33.718Z,9.80
2022-11-09T05:03:05.178Z,9.70
2022-11-09T05:05:34.340Z,9.70
2022-11-09T05:08:01.400Z,9.70
2022-11-09T05:10:28.573Z,9.70
2022-11-09T05:13:07.362Z,9.60
2022-11-09T05:15:35.685Z,9.60
2022-11-09T05:18:03.198Z,9.60
2022-11-09T05:20:30.317Z,9.60
2022-11-09T05:23:20.008Z,9.60
2022-11-09T05:25:47.643Z,9.50
2022-11-09T05:28:14.848Z,9.50
2022-11-09T05:30:41.752Z,9.50
2022-11-09T05:33:08.663Z,9.40
2022-11-09T05:35:35.509Z,9.40
2022-11-09T05:38:02.561Z,9.30
2022-11-09T05:40:29.446Z,9.30
2022-11-09T05:42:56.734Z,9.30
2022-11-09T05:45:42.122Z,9.20
2022-11-09T05:48:10.962Z,9.20
2022-11-09T05:50:38.267Z,9.20
2022-11-09T05:53:21.671Z,9.20
2022-11-09T05:55:48.707Z,9.10
2022-11-09T05:58:15.484Z,9.10
2022-11-09T06:00:42.493Z,9.10
2022-11-09T06:03:10.969Z,9.10
2022-11-09T06:05:40.150Z,9.00
2022-11-09T06:08:10.117Z,9.00
2022-11-09T06:10:37.151Z,9.00
2022-11-09T06:13:04.280Z,8.90
2022-11-09T06:15:34.701Z,8.90
2022-11-09T06:18:01.583Z,8.90
2022-11-09T06:20:33.085Z,8.90
2022-11-09T06:23:25.827Z,8.90
2022-11-09T06:26:00.522Z,8.90
2022-11-09T06:28:27.952Z,8.90
2022-11-09T06:30:59.063Z,8.90
2022-11-09T06:33:27.429Z,8.90
2022-11-09T06:35:56.526Z,8.80
2022-11-09T06:38:24.122Z,8.80
2022-11-09T06:40:55.759Z,8.80
2022-11-09T06:43:23.959Z,8.80
2022-11-09T06:45:51.604Z,8.80
2022-11-09T06:48:18.662Z,8.80
2022-11-09T06:50:46.067Z,8.80
2022-11-09T06:53:14.285Z,8.90
2022-11-09T06:55:45.701Z,8.90
2022-11-09T06:58:16.458Z,8.90
2022-11-09T07:00:44.244Z,8.90
2022-11-09T07:03:15.380Z,9.00
2022-11-09T07:05:42.567Z,9.00
2022-11-09T07:08:09.814Z,9.00
2022-11-09T07:10:37.081Z,9.10
2022-11-09T07:13:04.802Z,9.10
2022-11-09T07:15:33.967Z,9.10
2022-11-09T07:18:02.785Z,9.20
2022-11-09T07:20:30.383Z,9.30
2022-11-09T07:22:57.398Z,9.30
2022-11-09T07:25:25.944Z,9.40
2022-11-09T07:27:53.170Z,9.40
2022-11-09T07:30:20.166Z,9.50
2022-11-09T07:33:08.683Z,9.50
2022-11-09T07:35:33.766Z,9.50
2022-11-09T07:38:01.753Z,9.60
2022-11-09T07:40:29.831Z,9.60
2022-11-09T07:43:05.130Z,9.60
2022-11-09T07:45:34.090Z,9.70
2022-11-09T07:48:04.210Z,9.70
2022-11-09T07:50:32.480Z,9.70
2022-11-09T07:53:01.544Z,9.70
2022-11-09T07:55:29.659Z,9.70
2022-11-09T07:58:02.634Z,9.70
2022-11-09T08:00:31.830Z,9.70
2022-11-09T08:02:58.964Z,9.80
2022-11-09T08:05:26.042Z,9.80
2022-11-09T08:08:00.609Z,9.80
2022-11-09T08:10:29.079Z,9.80
2022-11-09T08:13:01.216Z,9.80
2022-11-09T08:15:29.215Z,9.90
2022-11-09T08:18:00.930Z,9.90
2022-11-09T08:20:28.351Z,9.90
2022-11-09T08:22:59.517Z,9.90
2022-11-09T08:25:29.633Z,10.00
2022-11-09T08:27:57.233Z,10.00
2022-11-09T08:30:24.378Z,10.00
2022-11-09T08:32:51.966Z,10.00
2022-11-09T08:35:22.292Z,10.10
2022-11-09T08:37:50.780Z,10.10
2022-11-09T08:40:20.324Z,10.20
2022-11-09T08:42:47.688Z,10.20
2022-11-09T08:45:15.228Z,10.30
2022-11-09T08:47:42.341Z,10.40
2022-11-09T08:50:10.527Z,10.40
2022-11-09T08:52:37.867Z,10.50
2022-11-09T08:55:05.561Z,10.50
2022-11-09T08:57:33.963Z,10.60
2022-11-09T09:00:00.774Z,10.60
2022-11-09T09:02:27.582Z,10.60
2022-11-09T09:04:54.368Z,10.60
2022-11-09T09:07:21.176Z,10.60
2022-11-09T09:09:48.175Z,10.60
2022-11-09T09:12:15.127Z,10.60
2022-11-09T09:14:42.193Z,10.60
2022-11-09T09:17:09.044Z,10.60
2022-11-09T09:19:35.880Z,10.50
2022-11-09T09:22:03.076Z,10.60
2022-11-09T09:24:29.935Z,10.60
2022-11-09T09:26:56.759Z,10.60
2022-11-09T09:29:24.035Z,10.60
2022-11-09T09:31:50.856Z,10.70
2022-11-09T09:34:18.688Z,10.80
2022-11-09T09:36:48.270Z,10.80
2022-11-09T09:39:15.928Z,10.90
2022-11-09T09:42:05.833Z,11.00
2022-11-09T09:44:37.623Z,11.00
2022-11-09T09:47:13.347Z,11.00
2022-11-09T09:49:49.818Z,11.00
2022-11-09T09:52:26.280Z,11.00
2022-11-09T09:55:09.285Z,11.00
2022-11-09T09:57:41.722Z,11.10
2022-11-09T10:00:20.548Z,11.20
2022-11-09T10:02:49.583Z,11.30
2022-11-09T10:05:18.348Z,11.40
2022-11-09T10:08:10.861Z,11.50
2022-11-09T10:11:04.889Z,11.50
2022-11-09T10:13:58.068Z,11.60
2022-11-09T10:16:57.364Z,11.60
2022-11-09T10:19:28.899Z,11.70
2022-11-09T10:22:35.757Z,11.80
2022-11-09T10:25:23.557Z,12.00
2022-11-09T10:28:16.826Z,12.10
2022-11-09T10:30:45.202Z,12.20
2022-11-09T10:33:21.494Z,12.20
2022-11-09T10:36:09.843Z,12.30
2022-11-09T10:38:43.840Z,12.40
2022-11-09T10:41:40.647Z,12.50
2022-11-09T10:44:26.112Z,12.70
2022-11-09T10:47:19.181Z,12.90
2022-11-09T10:50:26.967Z,13.10
2022-11-09T10:53:21.343Z,13.30
2022-11-09T10:56:22.027Z,14.30
2022-11-09T10:59:29.112Z,15.50
2022-11-09T11:02:26.647Z,16.40
2022-11-09T11:05:17.939Z,17.10
2022-11-09T11:08:25.051Z,17.70
2022-11-09T11:11:37.908Z,18.50
2022-11-09T11:14:34.252Z,19.00
2022-11-09T11:17:26.326Z,19.40
2022-11-09T11:20:36.415Z,19.50
2022-11-09T11:23:24.873Z,19.50
2022-11-09T11:26:19.338Z,19.70
2022-11-09T11:29:29.300Z,19.90
2022-11-09T11:32:17.604Z,20.20
2022-11-09T11:35:16.978Z,20.30
2022-11-09T11:38:28.953Z,20.40
2022-11-09T11:41:35.944Z,20.30
2022-11-09T11:44:37.020Z,20.30
2022-11-09T11:47:45.254Z,20.30
2022-11-09T11:50:51.600Z,20.50
2022-11-09T11:53:42.160Z,20.60
2022-11-09T11:56:37.559Z,20.40
2022-11-09T11:59:51.787Z,19.90
2022-11-09T12:02:49.065Z,19.50
2022-11-09T12:05:46.274Z,19.20
2022-11-09T12:08:31.971Z,19.20
2022-11-09T12:11:49.740Z,19.20
2022-11-09T12:14:46.921Z,19.20
2022-11-09T12:18:00.484Z,18.70
2022-11-09T12:21:12.451Z,18.50
2022-11-09T12:24:25.276Z,18.10
2022-11-09T12:27:33.302Z,17.70
2022-11-09T12:30:22.184Z,17.20
2022-11-09T12:33:19.404Z,16.90
2022-11-09T12:36:16.782Z,16.70
2022-11-09T12:39:19.299Z,16.50
2022-11-09T12:42:24.515Z,16.30
2022-11-09T12:45:22.533Z,16.20
2022-11-09T12:48:30.929Z,16.10
2022-11-09T12:51:18.203Z,16.00
2022-11-09T12:54:11.402Z,15.80
2022-11-09T12:57:01.165Z,15.60
2022-11-09T12:59:50.006Z,15.50
2022-11-09T13:02:43.555Z,15.40
2022-11-09T13:05:37.553Z,15.30
2022-11-09T13:08:31.517Z,15.30
2022-11-09T13:11:25.840Z,15.30
2022-11-09T13:14:23.454Z,15.20
2022-11-09T13:17:24.394Z,15.20
2022-11-09T13:24:00.160Z,15.00
2022-11-09T13:26:46.947Z,15.00
2022-11-09T13:29:42.520Z,15.00
2022-11-09T13:32:31.264Z,15.00
2022-11-09T13:35:42.619Z,15.00
2022-11-09T13:38:31.704Z,15.00
2022-11-09T13:41:32.325Z,14.90
2022-11-09T13:44:25.780Z,14.90
2022-11-09T13:47:25.488Z,14.80
2022-11-09T13:50:24.422Z,14.70
2022-11-09T13:53:48.255Z,14.70
2022-11-09T13:56:39.994Z,14.60
2022-11-09T13:59:46.900Z,14.50
2022-11-09T14:02:32.217Z,14.50
2022-11-09T14:05:37.630Z,14.40
2022-11-09T14:08:27.868Z,14.40
2022-11-09T14:11:28.251Z,14.40
2022-11-09T14:14:34.802Z,14.30
2022-11-09T14:17:30.303Z,14.30
2022-11-09T14:20:27.880Z,14.30
2022-11-09T14:23:25.038Z,14.30
2022-11-09T14:26:18.587Z,14.20
2022-11-09T14:29:24.214Z,14.30
2022-11-09T14:32:18.490Z,14.20
2022-11-09T14:35:22.928Z,14.10
2022-11-09T14:38:36.044Z,14.10
2022-11-09T14:41:27.672Z,14.00
2022-11-09T14:44:35.571Z,13.90
2022-11-09T14:47:30.421Z,13.90
2022-11-09T14:50:23.753Z,13.80
2022-11-09T14:53:16.638Z,13.70
2022-11-09T14:56:05.697Z,13.70
2022-11-09T14:58:52.121Z,13.70
2022-11-09T15:01:37.683Z,13.60
2022-11-09T15:04:23.708Z,13.60
2022-11-09T15:07:18.998Z,13.50
2022-11-09T15:10:20.695Z,13.40
2022-11-09T15:13:09.392Z,13.40
2022-11-09T15:15:55.483Z,13.30
2022-11-09T15:18:45.640Z,13.20
2022-11-09T15:21:30.878Z,13.20
2022-11-09T15:24:18.592Z,13.10
2022-11-09T15:27:29.069Z,13.10
2022-11-09T15:30:49.573Z,13.00
2022-11-09T15:33:34.727Z,13.00
2022-11-09T15:36:32.786Z,12.90
2022-11-09T15:39:20.836Z,12.90
2022-11-09T15:42:06.356Z,12.90
2022-11-09T15:44:58.765Z,12.80
2022-11-09T15:47:55.806Z,12.80
2022-11-09T15:50:41.399Z,12.70
2022-11-09T15:53:27.478Z,12.60
2022-11-09T15:56:30.605Z,12.60
2022-11-09T15:59:26.323Z,12.60
2022-11-09T16:02:12.139Z,12.50
2022-11-09T16:04:57.255Z,12.50
2022-11-09T16:07:54.292Z,12.40
2022-11-09T16:10:41.244Z,12.40
2022-11-09T16:13:26.802Z,12.40
2022-11-09T16:16:14.049Z,12.30
2022-11-09T16:18:59.796Z,12.30
2022-11-09T16:21:46.660Z,12.20
2022-11-09T16:24:32.303Z,12.20
2022-11-09T16:27:47.768Z,12.20
2022-11-09T16:30:24.718Z,12.10
2022-11-09T16:33:10.087Z,12.10
2022-11-09T16:35:58.662Z,12.10
2022-11-09T16:38:47.385Z,12.10
2022-11-09T16:41:32.882Z,12.00
2022-11-09T16:44:23.565Z,12.00
2022-11-09T16:47:12.535Z,12.00
2022-11-09T16:49:57.901Z,12.00
2022-11-09T16:52:43.472Z,12.00
2022-11-09T16:55:28.620Z,12.00
2022-11-09T16:58:13.791Z,11.90
2022-11-09T17:01:17.559Z,11.90
2022-11-09T17:04:04.390Z,11.90
2022-11-09T17:06:50.751Z,11.90
2022-11-09T17:09:36.827Z,11.90
2022-11-09T17:12:22.331Z,11.80
2022-11-09T17:15:08.246Z,11.80
2022-11-09T17:17:53.618Z,11.80
2022-11-09T17:20:47.111Z,11.80
2022-11-09T17:23:33.916Z,11.80
2022-11-09T17:26:20.098Z,11.70
2022-11-09T17:29:06.685Z,11.70
2022-11-09T17:31:52.209Z,11.70
2022-11-09T17:34:37.940Z,11.60
2022-11-09T17:37:23.894Z,11.60
2022-11-09T17:40:10.279Z,11.60
2022-11-09T17:42:57.024Z,11.60
2022-11-09T17:45:42.407Z,11.60
2022-11-09T17:48:27.595Z,11.60
2022-11-09T17:51:14.701Z,11.50
2022-11-09T17:54:04.574Z,11.50
2022-11-09T17:56:51.471Z,11.50
2022-11-09T17:59:37.151Z,11.50
2022-11-09T18:02:22.442Z,11.50
2022-11-09T18:05:08.376Z,11.50
2022-11-09T18:07:53.820Z,11.50
2022-11-09T18:10:41.228Z,11.50
2022-11-09T18:13:27.243Z,11.50
2022-11-09T18:16:17.770Z,11.40
2022-11-09T18:19:04.496Z,11.50
2022-11-09T18:21:50.136Z,11.40
2022-11-09T18:24:36.510Z,11.50
2022-11-09T18:27:25.992Z,11.40
2022-11-09T18:30:16.617Z,11.40
2022-11-09T18:33:01.882Z,11.40
2022-11-09T18:35:59.559Z,11.40
2022-11-09T18:38:45.504Z,11.40
2022-11-09T18:41:31.345Z,11.40
2022-11-09T18:44:17.266Z,11.40
2022-11-09T18:47:05.672Z,11.30
2022-11-09T18:49:52.906Z,11.30
2022-11-09T18:52:38.756Z,11.30
2022-11-09T18:55:24.573Z,11.30
2022-11-09T18:58:10.247Z,11.30
2022-11-09T19:01:07.055Z,11.30
2022-11-09T19:03:59.011Z,11.30
2022-11-09T19:06:47.253Z,11.20
2022-11-09T19:09:38.478Z,11.20
2022-11-09T19:12:24.327Z,11.20
2022-11-09T19:15:10.251Z,11.10
2022-11-09T19:17:55.829Z,11.10
2022-11-09T19:20:41.463Z,11.10
2022-11-09T19:23:31.275Z,11.10
2022-11-09T19:26:21.013Z,11.10
2022-11-09T19:29:07.563Z,11.00
2022-11-09T19:31:52.902Z,11.00
2022-11-09T19:34:38.989Z,11.00
2022-11-09T19:37:24.065Z,11.00
2022-11-09T19:40:10.335Z,11.00
2022-11-09T19:42:56.772Z,11.00
2022-11-09T19:45:42.670Z,11.00
2022-11-09T19:48:28.530Z,10.90
2022-11-09T19:51:15.852Z,11.00
2022-11-09T19:54:02.971Z,10.90
2022-11-09T19:56:48.392Z,10.90
2022-11-09T19:59:35.504Z,10.90
2022-11-09T20:02:20.989Z,10.90
2022-11-09T20:05:07.640Z,10.90
2022-11-09T20:07:53.036Z,10.90
2022-11-09T20:10:38.522Z,10.90
2022-11-09T20:13:24.588Z,10.80
2022-11-09T20:16:10.813Z,10.80
2022-11-09T20:18:56.704Z,10.80
2022-11-09T20:21:42.682Z,10.80
2022-11-09T20:24:27.894Z,10.80
2022-11-09T20:27:13.136Z,10.70
2022-11-09T20:29:58.380Z,10.70
2022-11-09T20:32:43.978Z,10.70
2022-11-09T20:35:29.336Z,10.70
2022-11-09T20:38:14.501Z,10.70
2022-11-09T20:41:01.703Z,10.70
2022-11-09T20:43:47.468Z,10.70
2022-11-09T20:46:36.170Z,10.70
2022-11-09T20:49:22.482Z,10.70
2022-11-09T20:52:07.814Z,10.70
2022-11-09T20:54:53.332Z,10.70
2022-11-09T20:57:38.650Z,10.70
2022-11-09T21:00:24.844Z,10.70
2022-11-09T21:03:10.716Z,10.70
2022-11-09T21:06:01.085Z,10.70
2022-11-09T21:08:51.752Z,10.60
2022-11-09T21:11:57.367Z,10.70
2022-11-09T21:14:43.308Z,10.70
2022-11-09T21:17:29.055Z,10.70
2022-11-09T21:20:14.863Z,10.70
2022-11-09T21:23:12.618Z,10.70
2022-11-09T21:26:19.072Z,10.70
2022-11-09T21:29:24.549Z,10.70
2022-11-09T21:32:12.097Z,10.70
2022-11-09T21:34:57.419Z,10.60
2022-11-09T21:37:42.902Z,10.60
2022-11-09T21:40:28.450Z,10.60
2022-11-09T21:43:14.919Z,10.60
2022-11-09T21:46:00.060Z,10.60
2022-11-09T21:48:45.620Z,10.60
2022-11-09T21:51:31.808Z,10.60
2022-11-09T21:54:17.504Z,10.60
2022-11-09T21:57:03.136Z,10.60
2022-11-09T21:59:48.457Z,10.50
2022-11-09T22:02:34.077Z,10.50
2022-11-09T22:05:23.004Z,10.40
2022-11-09T22:08:08.934Z,10.40
2022-11-09T22:11:13.237Z,10.40
2022-11-09T22:14:17.440Z,10.40
2022-11-09T22:17:05.649Z,10.30
2022-11-09T22:20:09.378Z,10.30
2022-11-09T22:22:54.631Z,10.30
2022-11-09T22:25:45.250Z,10.30
2022-11-09T22:28:33.390Z,10.20
2022-11-09T22:31:18.789Z,10.30
2022-11-09T22:34:04.259Z,10.30
2022-11-09T22:36:49.694Z,10.20
2022-11-09T22:39:35.019Z,10.20
2022-11-09T22:42:20.229Z,10.20
2022-11-09T22:45:05.985Z,10.10
2022-11-09T22:47:51.118Z,10.10
2022-11-09T22:50:37.590Z,10.10
2022-11-09T22:53:23.526Z,10.10
2022-11-09T22:56:11.048Z,10.00
2022-11-09T22:58:57.187Z,10.00
2022-11-09T23:01:42.595Z,10.00
2022-11-09T23:04:28.274Z,10.00
2022-11-09T23:07:13.757Z,10.00
2022-11-09T23:09:59.507Z,10.00
2022-11-09T23:12:44.902Z,10.00
2022-11-09T23:15:30.794Z,10.00
2022-11-09T23:18:35.048Z,10.00
2022-11-09T23:21:26.128Z,9.90
2022-11-09T23:24:31.272Z,9.90
2022-11-09T23:27:16.776Z,9.90
2022-11-09T23:30:01.988Z,9.90
2022-11-09T23:32:47.447Z,9.90
2022-11-09T23:35:33.662Z,9.80
2022-11-09T23:38:19.057Z,9.80
2022-11-09T23:41:06.016Z,9.80
2022-11-09T23:43:55.025Z,9.80
2022-11-09T23:46:40.972Z,9.80
2022-11-09T23:49:26.204Z,9.80
2022-11-09T23:52:11.929Z,9.80
2022-11-09T23:54:57.154Z,9.80
2022-11-09T23:57:43.411Z,9.80
